createdAt,value
2019-04-27T00:02:05.786Z,76.41
2019-04-27T00:04:55.847Z,75.03
2019-04-27T00:07:33.583Z,74.46
2019-04-27T00:10:20.403Z,75.07
2019-04-27T00:12:47.924Z,77.08
2019-04-27T00:15:19.602Z,75.27
2019-04-27T00:18:09.458Z,74.90
2019-04-27T00:20:44.622Z,75.54
2019-04-27T00:23:15.051Z,74.35
2019-04-27T00:25:43.941Z,73.59
2019-04-27T00:28:12.971Z,74.85
2019-04-27T00:30:41.827Z,75.35
2019-04-27T00:33:13.617Z,75.37
2019-04-27T00:35:43.886Z,76.55
2019-04-27T00:38:17.101Z,77.89
2019-04-27T00:40:47.529Z,80.32
2019-04-27T00:43:16.422Z,78.61
2019-04-27T00:45:45.311Z,77.67
2019-04-27T00:48:14.306Z,79.00
2019-04-27T00:50:43.932Z,78.61
2019-04-27T00:53:13.393Z,77.72
2019-04-27T00:55:43.949Z,77.95
2019-04-27T00:58:17.144Z,78.78
2019-04-27T01:00:54.027Z,77.84
2019-04-27T01:03:24.568Z,79.84
2019-04-27T01:05:53.441Z,79.80
2019-04-27T01:08:22.969Z,79.90
2019-04-27T01:10:53.668Z,79.64
2019-04-27T01:13:23.081Z,79.82
2019-04-27T01:15:52.084Z,79.24
2019-04-27T01:18:20.971Z,78.46
2019-04-27T01:20:49.966Z,77.77
2019-04-27T01:23:19.350Z,78.36
2019-04-27T01:25:51.093Z,78.83
2019-04-27T01:28:21.554Z,79.23
2019-04-27T01:30:52.019Z,79.81
2019-04-27T01:33:20.873Z,79.68
2019-04-27T01:35:49.766Z,79.92
2019-04-27T01:38:19.190Z,81.58
2019-04-27T01:40:49.787Z,82.80
2019-04-27T01:43:18.770Z,82.44
2019-04-27T01:45:48.826Z,83.07
2019-04-27T01:48:23.638Z,82.78
2019-04-27T01:50:49.214Z,82.12
2019-04-27T01:53:19.062Z,81.80
2019-04-27T01:55:49.113Z,81.78
2019-04-27T01:58:20.147Z,82.33
2019-04-27T02:00:56.596Z,82.61
2019-04-27T02:03:33.303Z,82.38
2019-04-27T02:06:01.330Z,82.75
2019-04-27T02:08:30.233Z,83.44
2019-04-27T02:10:59.495Z,82.83
2019-04-27T02:13:29.044Z,82.60
2019-04-27T02:15:58.790Z,83.95
2019-04-27T02:18:36.848Z,83.60
2019-04-27T02:20:59.198Z,82.85
2019-04-27T02:23:29.347Z,83.05
2019-04-27T02:25:58.693Z,82.06
2019-04-27T02:28:39.419Z,82.35
2019-04-27T02:31:22.105Z,82.51
2019-04-27T02:33:55.294Z,82.58
2019-04-27T02:36:24.186Z,82.85
2019-04-27T02:38:53.094Z,83.86
2019-04-27T02:41:21.966Z,85.00
2019-04-27T02:43:52.631Z,83.55
2019-04-27T02:46:21.592Z,84.46
2019-04-27T02:48:58.677Z,83.66
2019-04-27T02:51:42.874Z,83.82
2019-04-27T02:54:12.804Z,83.34
2019-04-27T02:56:41.846Z,83.51
2019-04-27T02:59:12.168Z,84.30
2019-04-27T03:01:46.507Z,83.75
2019-04-27T03:04:13.424Z,83.57
2019-04-27T03:06:42.319Z,83.42
2019-04-27T03:09:12.241Z,83.31
2019-04-27T03:11:41.127Z,83.70
2019-04-27T03:14:36.101Z,84.90
2019-04-27T03:17:11.267Z,83.53
2019-04-27T03:19:49.459Z,82.99
2019-04-27T03:22:19.616Z,85.31
2019-04-27T03:24:53.811Z,83.72
2019-04-27T03:27:30.125Z,83.63
2019-04-27T03:29:59.723Z,83.49
2019-04-27T03:32:31.473Z,84.56
2019-04-27T03:35:02.731Z,83.54
2019-04-27T03:37:30.656Z,83.27
2019-04-27T03:40:00.176Z,83.18
2019-04-27T03:42:29.444Z,83.05
2019-04-27T03:45:00.570Z,82.93
2019-04-27T03:47:30.663Z,83.13
2019-04-27T03:50:00.190Z,84.67
2019-04-27T03:52:36.905Z,85.21
2019-04-27T03:55:13.539Z,84.59
2019-04-27T03:57:44.107Z,84.24
2019-04-27T04:00:16.026Z,82.76
2019-04-27T04:02:44.860Z,82.86
2019-04-27T04:05:13.956Z,83.23
2019-04-27T04:07:42.848Z,82.28
2019-04-27T04:10:13.893Z,82.24
2019-04-27T04:12:47.393Z,82.48
2019-04-27T04:15:24.062Z,81.60
2019-04-27T04:17:52.961Z,81.64
2019-04-27T04:20:21.844Z,82.41
2019-04-27T04:22:51.527Z,81.32
2019-04-27T04:25:20.590Z,81.52
2019-04-27T04:27:50.651Z,81.69
2019-04-27T04:30:20.044Z,81.58
2019-04-27T04:32:51.694Z,80.90
2019-04-27T04:35:21.895Z,81.52
2019-04-27T04:37:52.845Z,81.57
2019-04-27T04:40:23.398Z,81.33
2019-04-27T04:42:53.847Z,82.84
2019-04-27T04:45:40.865Z,83.11
2019-04-27T04:48:13.856Z,84.19
2019-04-27T04:50:42.742Z,82.93
2019-04-27T04:53:12.956Z,82.16
2019-04-27T04:55:41.971Z,81.03
2019-04-27T04:58:11.669Z,81.42
2019-04-27T05:00:40.663Z,82.35
2019-04-27T05:03:10.371Z,81.85
2019-04-27T05:05:41.282Z,80.82
2019-04-27T05:08:10.714Z,83.09
2019-04-27T05:10:39.636Z,83.99
2019-04-27T05:13:09.475Z,84.89
2019-04-27T05:15:39.481Z,84.48
2019-04-27T05:18:09.340Z,83.90
2019-04-27T05:20:39.835Z,82.67
2019-04-27T05:23:09.823Z,82.88
2019-04-27T05:25:39.088Z,83.50
2019-04-27T05:28:09.781Z,83.11
2019-04-27T05:30:39.126Z,82.64
2019-04-27T05:33:09.158Z,82.96
2019-04-27T05:35:38.763Z,81.66
2019-04-27T05:38:12.909Z,81.13
2019-04-27T05:40:40.014Z,81.13
2019-04-27T05:43:10.041Z,81.29
2019-04-27T05:45:53.161Z,79.79
2019-04-27T05:48:27.744Z,80.16
2019-04-27T05:50:58.913Z,79.55
2019-04-27T05:53:29.070Z,81.25
2019-04-27T05:55:59.426Z,81.41
2019-04-27T05:58:28.973Z,81.79
2019-04-27T06:00:59.450Z,80.48
2019-04-27T06:03:29.690Z,80.63
2019-04-27T06:06:01.404Z,80.38
2019-04-27T06:08:29.597Z,81.89
2019-04-27T06:10:59.332Z,80.90
2019-04-27T06:13:30.690Z,82.46
2019-04-27T06:15:59.332Z,82.33
2019-04-27T06:18:29.395Z,82.81
2019-04-27T06:20:59.813Z,81.99
2019-04-27T06:23:29.112Z,82.48
2019-04-27T06:26:01.602Z,81.80
2019-04-27T06:28:29.328Z,81.54
2019-04-27T06:30:59.483Z,81.81
2019-04-27T06:33:34.158Z,81.41
2019-04-27T06:35:59.444Z,81.04
2019-04-27T06:38:29.679Z,81.81
2019-04-27T06:40:59.355Z,81.08
2019-04-27T06:43:29.520Z,81.13
2019-04-27T06:45:58.753Z,81.43
2019-04-27T06:48:29.553Z,81.42
2019-04-27T06:51:03.548Z,81.04
2019-04-27T06:53:29.236Z,80.61
2019-04-27T06:55:58.610Z,79.51
2019-04-27T06:58:29.232Z,80.18
2019-04-27T07:01:04.313Z,80.23
2019-04-27T07:03:33.337Z,80.71
2019-04-27T07:06:02.328Z,82.43
2019-04-27T07:08:31.403Z,82.18
2019-04-27T07:11:00.398Z,81.64
2019-04-27T07:13:29.319Z,81.11
2019-04-27T07:15:59.887Z,80.90
2019-04-27T07:18:29.035Z,80.40
2019-04-27T07:20:58.673Z,80.33
2019-04-27T07:23:29.231Z,80.07
2019-04-27T07:25:59.882Z,79.75
2019-04-27T07:28:29.005Z,79.94
2019-04-27T07:30:58.678Z,79.26
2019-04-27T07:33:29.522Z,78.99
2019-04-27T07:35:59.670Z,78.76
2019-04-27T07:38:29.389Z,79.04
2019-04-27T07:40:58.749Z,78.39
2019-04-27T07:43:44.265Z,79.42
2019-04-27T07:46:13.156Z,80.06
2019-04-27T07:48:42.047Z,79.56
2019-04-27T07:51:12.062Z,79.88
2019-04-27T07:53:40.955Z,81.22
2019-04-27T07:56:10.833Z,79.86
2019-04-27T07:58:39.760Z,80.01
2019-04-27T08:01:09.676Z,80.63
2019-04-27T08:03:39.041Z,81.52
2019-04-27T08:06:10.838Z,79.57
2019-04-27T08:08:39.831Z,81.59
2019-04-27T08:11:11.427Z,82.20
2019-04-27T08:13:39.563Z,81.00
2019-04-27T08:16:08.881Z,80.61
2019-04-27T08:18:39.513Z,81.56
2019-04-27T08:21:09.408Z,80.57
2019-04-27T08:23:39.416Z,79.09
2019-04-27T08:26:10.569Z,78.75
2019-04-27T08:28:59.327Z,79.31
2019-04-27T08:31:32.527Z,77.73
2019-04-27T08:34:01.414Z,76.66
2019-04-27T08:36:30.300Z,77.19
2019-04-27T08:38:59.193Z,77.23
2019-04-27T08:41:29.570Z,76.63
2019-04-27T08:43:58.784Z,77.05
2019-04-27T08:46:28.653Z,76.25
2019-04-27T08:48:58.711Z,77.03
2019-04-27T08:51:29.103Z,76.18
2019-04-27T08:53:59.129Z,74.90
2019-04-27T08:56:28.189Z,75.33
2019-04-27T08:58:57.081Z,75.93
2019-04-27T09:01:25.974Z,76.07
2019-04-27T09:03:54.864Z,74.84
2019-04-27T09:06:23.753Z,74.25
2019-04-27T09:08:55.515Z,74.92
2019-04-27T09:11:25.940Z,75.05
2019-04-27T09:13:59.159Z,73.97
2019-04-27T09:16:35.396Z,72.70
2019-04-27T09:19:05.873Z,71.95
2019-04-27T09:21:52.735Z,71.19
2019-04-27T09:24:21.626Z,71.95
2019-04-27T09:26:50.519Z,72.22
2019-04-27T09:29:19.817Z,72.13
2019-04-27T09:31:50.050Z,70.01
2019-04-27T09:34:19.015Z,69.47
2019-04-27T09:36:48.030Z,72.51
2019-04-27T09:39:16.925Z,72.51
2019-04-27T09:41:48.380Z,70.56
2019-04-27T09:44:19.215Z,71.21
2019-04-27T09:46:48.111Z,71.12
2019-04-27T09:49:17.098Z,72.69
2019-04-27T09:51:46.099Z,70.51
2019-04-27T09:54:15.941Z,70.52
2019-04-27T09:56:46.628Z,71.58
2019-04-27T09:59:16.042Z,73.05
2019-04-27T10:01:46.530Z,73.13
2019-04-27T10:04:15.711Z,73.63
2019-04-27T10:06:48.591Z,74.34
2019-04-27T10:09:16.826Z,73.36
2019-04-27T10:11:45.718Z,74.09
2019-04-27T10:14:16.299Z,74.53
2019-04-27T10:16:46.889Z,73.04
2019-04-27T10:19:28.110Z,71.85
2019-04-27T10:21:46.913Z,70.39
2019-04-27T10:24:15.804Z,70.07
2019-04-27T10:26:44.699Z,69.54
2019-04-27T10:29:13.588Z,69.83
2019-04-27T10:31:42.581Z,67.72
2019-04-27T10:34:12.496Z,68.29
2019-04-27T10:36:41.498Z,67.84
2019-04-27T10:39:13.400Z,66.20
2019-04-27T10:41:42.654Z,66.12
2019-04-27T10:44:12.470Z,65.64
2019-04-27T10:46:44.224Z,66.45
2019-04-27T10:49:13.113Z,64.89
2019-04-27T10:51:42.006Z,63.87
2019-04-27T10:54:11.820Z,62.01
2019-04-27T10:56:40.814Z,64.75
2019-04-27T10:59:10.321Z,63.38
2019-04-27T11:01:39.311Z,61.05
2019-04-27T11:04:10.567Z,61.83
2019-04-27T11:06:43.748Z,63.34
2019-04-27T11:09:12.845Z,67.81
2019-04-27T11:11:42.252Z,63.46
2019-04-27T11:14:11.445Z,62.36
2019-04-27T11:16:40.543Z,61.38
2019-04-27T11:19:10.563Z,59.65
2019-04-27T11:21:39.556Z,59.89
2019-04-27T11:24:08.936Z,59.84
2019-04-27T11:26:37.854Z,60.32
2019-04-27T11:29:07.846Z,60.09
2019-04-27T11:31:36.757Z,61.42
2019-04-27T11:34:06.742Z,61.46
2019-04-27T11:36:40.070Z,59.18
2019-04-27T11:39:11.934Z,60.50
2019-04-27T11:41:40.824Z,60.68
2019-04-27T11:44:10.943Z,62.27
2019-04-27T11:46:39.834Z,65.32
2019-04-27T11:49:09.624Z,63.83
2019-04-27T11:51:39.357Z,66.93
2019-04-27T11:54:09.170Z,65.52
2019-04-27T11:56:38.537Z,66.08
2019-04-27T11:59:08.669Z,65.19
2019-04-27T12:01:37.584Z,65.21
2019-04-27T12:04:08.020Z,63.73
2019-04-27T12:06:36.904Z,62.60
2019-04-27T12:09:07.198Z,63.32
2019-04-27T12:11:36.324Z,62.31
2019-04-27T12:14:06.210Z,60.99
2019-04-27T12:16:36.023Z,62.16
2019-04-27T12:19:06.569Z,62.67
2019-04-27T12:21:36.183Z,62.92
2019-04-27T12:24:05.553Z,62.09
2019-04-27T12:26:48.109Z,62.26
2019-04-27T12:29:18.473Z,63.33
2019-04-27T12:31:49.088Z,62.94
2019-04-27T12:34:18.262Z,64.00
2019-04-27T12:36:47.153Z,63.29
2019-04-27T12:39:16.044Z,61.64
2019-04-27T12:41:46.576Z,60.67
2019-04-27T12:44:16.026Z,61.21
2019-04-27T12:46:46.093Z,61.45
2019-04-27T12:49:16.187Z,60.80
2019-04-27T12:51:46.745Z,61.45
2019-04-27T12:54:23.141Z,62.69
2019-04-27T12:57:06.640Z,62.41
2019-04-27T12:59:53.156Z,62.91
2019-04-27T13:02:23.678Z,62.72
2019-04-27T13:04:52.863Z,62.61
2019-04-27T13:07:26.000Z,62.81
2019-04-27T13:09:56.387Z,65.59
2019-04-27T13:12:27.412Z,66.60
2019-04-27T13:14:56.331Z,66.70
2019-04-27T13:17:26.503Z,67.48
2019-04-27T13:19:56.095Z,67.16
2019-04-27T13:22:25.064Z,67.03
2019-04-27T13:24:54.148Z,66.24
2019-04-27T13:27:23.036Z,66.32
2019-04-27T13:29:51.928Z,66.46
2019-04-27T13:32:20.820Z,66.25
2019-04-27T13:34:49.711Z,66.51
2019-04-27T13:37:32.633Z,67.01
2019-04-27T13:40:07.195Z,65.28
2019-04-27T13:42:33.802Z,65.17
2019-04-27T13:45:06.011Z,64.82
2019-04-27T13:47:36.750Z,64.50
2019-04-27T13:50:08.568Z,63.88
2019-04-27T13:52:38.965Z,64.73
2019-04-27T13:55:08.078Z,64.45
2019-04-27T13:57:49.435Z,64.09
2019-04-27T14:00:12.224Z,64.14
2019-04-27T14:02:41.104Z,63.83
2019-04-27T14:05:11.821Z,64.19
2019-04-27T14:07:40.851Z,65.81
2019-04-27T14:10:10.847Z,65.94
2019-04-27T14:12:39.703Z,67.14
2019-04-27T14:15:09.650Z,66.83
2019-04-27T14:17:39.227Z,65.99
2019-04-27T14:20:09.750Z,66.26
2019-04-27T14:22:39.270Z,64.91
2019-04-27T14:25:08.729Z,65.89
2019-04-27T14:27:40.637Z,64.81
2019-04-27T14:30:13.102Z,64.50
2019-04-27T14:32:42.394Z,66.50
2019-04-27T14:35:12.249Z,72.84
2019-04-27T14:37:41.142Z,76.63
2019-04-27T14:40:10.627Z,77.99
2019-04-27T14:42:39.502Z,79.63
2019-04-27T14:45:10.377Z,79.74
2019-04-27T14:47:39.925Z,80.16
2019-04-27T14:50:10.015Z,80.42
2019-04-27T14:52:40.852Z,79.66
2019-04-27T14:55:10.570Z,79.47
2019-04-27T14:57:39.555Z,77.35
2019-04-27T15:00:10.364Z,78.72
2019-04-27T15:02:39.355Z,77.06
2019-04-27T15:05:08.997Z,76.61
2019-04-27T15:07:37.975Z,76.98
2019-04-27T15:10:07.479Z,78.53
2019-04-27T15:12:36.683Z,78.42
2019-04-27T15:15:07.826Z,79.25
2019-04-27T15:17:37.125Z,79.44
2019-04-27T15:20:14.112Z,78.27
2019-04-27T15:22:43.711Z,77.90
2019-04-27T15:25:15.746Z,78.14
2019-04-27T15:27:45.708Z,77.58
2019-04-27T15:30:22.469Z,78.35
2019-04-27T15:32:52.896Z,77.08
2019-04-27T15:35:40.487Z,78.88
2019-04-27T15:38:13.910Z,79.20
2019-04-27T15:41:01.147Z,80.03
2019-04-27T15:43:31.572Z,81.06
2019-04-27T15:46:00.684Z,80.09
2019-04-27T15:48:33.636Z,79.19
2019-04-27T15:51:03.244Z,79.65
2019-04-27T15:53:30.624Z,80.08
2019-04-27T15:56:01.762Z,79.13
2019-04-27T15:58:30.147Z,76.78
2019-04-27T16:01:02.397Z,77.09
2019-04-27T16:03:31.357Z,74.01
2019-04-27T16:06:03.201Z,74.36
2019-04-27T16:08:31.136Z,75.19
2019-04-27T16:11:00.025Z,73.87
2019-04-27T16:13:32.866Z,73.81
2019-04-27T16:15:59.550Z,72.89
2019-04-27T16:18:29.242Z,74.46
2019-04-27T16:21:02.769Z,74.08
2019-04-27T16:23:29.611Z,72.60
2019-04-27T16:26:00.644Z,73.55
2019-04-27T16:28:29.129Z,74.59
2019-04-27T16:30:58.186Z,73.92
2019-04-27T16:33:28.858Z,74.29
2019-04-27T16:36:06.359Z,74.10
2019-04-27T16:38:36.260Z,74.52
2019-04-27T16:41:05.296Z,75.09
2019-04-27T16:43:34.350Z,75.64
2019-04-27T16:46:04.637Z,78.42
2019-04-27T16:48:35.133Z,75.98
2019-04-27T16:51:04.915Z,72.29
2019-04-27T16:53:38.233Z,75.63
2019-04-27T16:56:14.542Z,76.63
2019-04-27T16:58:39.482Z,77.10
2019-04-27T17:01:12.079Z,77.57
2019-04-27T17:03:41.539Z,76.79
2019-04-27T17:06:11.473Z,76.92
2019-04-27T17:08:41.797Z,77.78
2019-04-27T17:11:13.609Z,76.00
2019-04-27T17:13:44.174Z,76.63
2019-04-27T17:16:31.264Z,77.36
2019-04-27T17:19:04.878Z,77.53
2019-04-27T17:21:33.433Z,77.81
2019-04-27T17:24:02.861Z,78.71
2019-04-27T17:26:35.296Z,78.23
2019-04-27T17:29:16.121Z,77.70
2019-04-27T17:31:42.063Z,73.19
2019-04-27T17:34:12.030Z,74.05
2019-04-27T17:36:41.793Z,73.20
2019-04-27T17:39:11.913Z,74.07
2019-04-27T17:41:41.744Z,74.83
2019-04-27T17:44:12.772Z,75.99
2019-04-27T17:46:47.057Z,76.86
2019-04-27T17:49:13.313Z,77.60
2019-04-27T17:51:44.390Z,78.17
2019-04-27T17:54:12.727Z,78.53
2019-04-27T17:56:48.239Z,78.84
2019-04-27T17:59:16.914Z,78.98
2019-04-27T18:01:42.788Z,77.91
2019-04-27T18:04:12.707Z,77.13
2019-04-27T18:06:42.662Z,76.22
2019-04-27T18:09:13.560Z,74.56
2019-04-27T18:11:42.553Z,74.94
2019-04-27T18:14:14.704Z,75.54
2019-04-27T18:16:42.792Z,76.58
2019-04-27T18:19:13.630Z,74.91
2019-04-27T18:21:56.834Z,73.19
2019-04-27T18:24:26.139Z,72.48
2019-04-27T18:27:04.358Z,74.21
2019-04-27T18:29:33.156Z,74.33
2019-04-27T18:32:02.044Z,69.57
2019-04-27T18:34:30.935Z,64.24
2019-04-27T18:36:59.826Z,65.08
2019-04-27T18:39:28.725Z,66.81
2019-04-27T18:41:58.504Z,66.98
2019-04-27T18:44:30.852Z,67.80
2019-04-27T18:47:02.156Z,68.73
2019-04-27T18:49:39.755Z,69.14
2019-04-27T18:52:27.380Z,68.74
2019-04-27T18:54:56.269Z,71.42
2019-04-27T18:57:25.160Z,72.50
2019-04-27T18:59:54.050Z,74.30
2019-04-27T19:02:22.948Z,75.20
2019-04-27T19:04:51.834Z,75.71
2019-04-27T19:07:20.723Z,75.98
2019-04-27T19:09:49.700Z,75.66
2019-04-27T19:12:20.446Z,74.78
2019-04-27T19:14:49.770Z,73.39
2019-04-27T19:17:19.786Z,72.64
2019-04-27T19:19:50.605Z,71.73
2019-04-27T19:22:19.505Z,72.26
2019-04-27T19:24:48.389Z,74.13
2019-04-27T19:27:37.042Z,75.74
2019-04-27T19:30:28.078Z,76.89
2019-04-27T19:32:57.149Z,77.93
2019-04-27T19:35:26.140Z,78.51
2019-04-27T19:37:55.032Z,76.73
2019-04-27T19:40:23.922Z,73.53
2019-04-27T19:42:52.814Z,69.13
2019-04-27T19:45:21.811Z,74.44
2019-04-27T19:47:50.710Z,75.01
2019-04-27T19:50:19.593Z,69.52
2019-04-27T19:52:50.252Z,67.84
2019-04-27T19:55:19.219Z,65.55
2019-04-27T19:57:49.787Z,70.81
2019-04-27T20:00:26.112Z,73.49
2019-04-27T20:02:55.413Z,74.37
2019-04-27T20:05:24.305Z,75.96
2019-04-27T20:07:53.298Z,75.53
2019-04-27T20:10:22.188Z,75.33
2019-04-27T20:12:51.092Z,75.45
2019-04-27T20:15:19.976Z,74.84
2019-04-27T20:17:50.721Z,74.32
2019-04-27T20:20:19.598Z,74.82
2019-04-27T20:22:48.487Z,74.36
2019-04-27T20:25:17.378Z,75.58
2019-04-27T20:27:49.633Z,74.63
2019-04-27T20:30:21.076Z,74.40
2019-04-27T20:32:51.084Z,74.85
2019-04-27T20:35:21.904Z,73.88
2019-04-27T20:37:51.893Z,74.75
2019-04-27T20:40:21.792Z,75.64
2019-04-27T20:42:51.601Z,76.11
2019-04-27T20:45:20.695Z,76.43
2019-04-27T20:47:52.342Z,75.92
2019-04-27T20:50:20.336Z,76.30
2019-04-27T20:52:50.888Z,76.51
2019-04-27T20:55:21.365Z,76.23
2019-04-27T20:57:59.668Z,76.07
2019-04-27T21:00:22.335Z,75.33
2019-04-27T21:02:55.732Z,76.09
2019-04-27T21:05:26.198Z,75.11
2019-04-27T21:08:02.631Z,76.32
2019-04-27T21:10:32.606Z,75.88
2019-04-27T21:13:01.538Z,76.32
2019-04-27T21:15:31.523Z,77.24
2019-04-27T21:18:01.245Z,77.85
2019-04-27T21:20:31.000Z,76.92
2019-04-27T21:23:01.811Z,76.95
2019-04-27T21:25:31.566Z,78.71
2019-04-27T21:28:14.905Z,78.12
2019-04-27T21:30:31.969Z,79.30
2019-04-27T21:33:01.204Z,79.35
2019-04-27T21:35:30.262Z,78.22
2019-04-27T21:37:59.154Z,78.08
2019-04-27T21:40:28.046Z,78.73
2019-04-27T21:42:56.936Z,78.48
2019-04-27T21:45:25.932Z,77.56
2019-04-27T21:47:54.826Z,77.54
2019-04-27T21:50:25.146Z,75.76
2019-04-27T21:53:02.529Z,76.66
2019-04-27T21:55:33.270Z,78.16
2019-04-27T21:58:02.160Z,76.36
2019-04-27T22:00:42.823Z,75.66
2019-04-27T22:03:17.049Z,74.89
2019-04-27T22:05:45.941Z,76.50
2019-04-27T22:08:14.829Z,78.69
2019-04-27T22:10:43.720Z,77.69
2019-04-27T22:13:14.046Z,77.21
2019-04-27T22:15:42.936Z,78.55
2019-04-27T22:18:12.646Z,78.41
2019-04-27T22:20:42.673Z,79.06
2019-04-27T22:23:23.141Z,78.06
2019-04-27T22:25:54.555Z,79.03
2019-04-27T22:28:22.853Z,79.50
2019-04-27T22:30:51.745Z,79.23
2019-04-27T22:33:21.450Z,79.25
2019-04-27T22:35:51.771Z,78.74
2019-04-27T22:38:20.743Z,78.21
2019-04-27T22:40:53.861Z,78.81
2019-04-27T22:43:24.290Z,78.25
2019-04-27T22:45:53.284Z,78.69
2019-04-27T22:48:22.173Z,79.23
2019-04-27T22:50:51.523Z,78.24
2019-04-27T22:53:20.472Z,78.24
2019-04-27T22:56:07.526Z,78.89
2019-04-27T22:58:38.117Z,79.23
2019-04-27T23:01:14.135Z,79.29
2019-04-27T23:03:44.603Z,77.93
2019-04-27T23:06:13.494Z,77.06
2019-04-27T23:08:42.491Z,76.97
2019-04-27T23:11:11.914Z,76.71
2019-04-27T23:13:43.138Z,78.75
2019-04-27T23:16:14.178Z,79.45
2019-04-27T23:18:43.069Z,79.40
2019-04-27T23:21:11.962Z,79.29
2019-04-27T23:23:41.439Z,79.00
2019-04-27T23:26:11.939Z,79.75
2019-04-27T23:28:41.356Z,79.29
2019-04-27T23:31:12.953Z,79.13
2019-04-27T23:33:43.380Z,79.52
2019-04-27T23:36:12.271Z,78.84
2019-04-27T23:38:41.164Z,78.27
2019-04-27T23:41:11.627Z,78.42
2019-04-27T23:43:40.686Z,79.31
2019-04-27T23:46:11.601Z,78.87
2019-04-27T23:48:42.076Z,78.97
2019-04-27T23:51:12.788Z,79.87
2019-04-27T23:53:41.863Z,79.97
2019-04-27T23:56:11.921Z,80.59
2019-04-27T23:58:40.894Z,80.79
